createdAt,value
2023-04-27T00:02:28.000Z,18.83
2023-04-27T00:04:59.983Z,18.80
2023-04-27T00:07:31.509Z,16.15
2023-04-27T00:10:05.387Z,15.45
2023-04-27T00:12:43.078Z,16.23
2023-04-27T00:15:19.733Z,19.20
2023-04-27T00:17:49.442Z,15.90
2023-04-27T00:20:21.282Z,16.17
2023-04-27T00:22:57.078Z,16.55
2023-04-27T00:25:28.536Z,15.80
2023-04-27T00:27:57.644Z,20.58
2023-04-27T00:30:26.884Z,19.05
2023-04-27T00:32:59.120Z,21.23
2023-04-27T00:35:33.662Z,18.98
2023-04-27T00:38:04.859Z,17.90
2023-04-27T00:40:40.973Z,19.08
2023-04-27T00:43:11.615Z,18.88
2023-04-27T00:45:44.357Z,16.23
2023-04-27T00:48:19.310Z,15.48
2023-04-27T00:50:51.289Z,18.35
2023-04-27T00:53:22.116Z,15.68
2023-04-27T00:55:55.892Z,15.82
2023-04-27T00:58:31.456Z,18.70
2023-04-27T01:01:06.010Z,20.15
2023-04-27T01:03:35.673Z,22.30
2023-04-27T01:06:10.317Z,17.88
2023-04-27T01:08:44.139Z,17.20
2023-04-27T01:11:13.090Z,19.80
2023-04-27T01:13:44.374Z,22.27
2023-04-27T01:16:14.018Z,19.83
2023-04-27T01:18:44.102Z,19.40
2023-04-27T01:21:15.184Z,20.77
2023-04-27T01:23:46.796Z,20.98
2023-04-27T01:26:18.340Z,20.27
2023-04-27T01:28:47.986Z,20.77
2023-04-27T01:31:24.663Z,27.77
2023-04-27T01:33:57.108Z,25.00
2023-04-27T01:36:28.266Z,25.08
2023-04-27T01:38:58.515Z,26.73
2023-04-27T01:41:32.149Z,19.88
2023-04-27T01:44:01.461Z,22.77
2023-04-27T01:46:31.410Z,26.27
2023-04-27T01:49:06.189Z,23.40
2023-04-27T01:51:38.477Z,28.05
2023-04-27T01:54:12.456Z,23.02
2023-04-27T01:56:43.680Z,29.10
2023-04-27T01:59:13.789Z,21.98
2023-04-27T02:01:45.922Z,27.42
2023-04-27T02:04:19.802Z,25.08
2023-04-27T02:06:54.029Z,24.23
2023-04-27T02:09:25.469Z,23.17
2023-04-27T02:11:57.445Z,23.77
2023-04-27T02:14:27.828Z,21.27
2023-04-27T02:17:00.152Z,21.45
2023-04-27T02:22:02.804Z,23.23
2023-04-27T02:24:31.808Z,20.15
2023-04-27T02:27:02.765Z,24.67
2023-04-27T02:29:39.491Z,23.42
2023-04-27T02:32:11.500Z,24.17
2023-04-27T02:34:44.514Z,21.58
2023-04-27T02:37:13.681Z,23.25
2023-04-27T02:39:45.908Z,23.23
2023-04-27T02:42:15.154Z,19.35
2023-04-27T02:44:50.095Z,18.48
2023-04-27T02:47:21.419Z,26.77
2023-04-27T02:49:50.587Z,21.98
2023-04-27T02:52:22.058Z,22.83
2023-04-27T02:54:51.154Z,21.77
2023-04-27T02:57:22.376Z,20.17
2023-04-27T02:59:58.241Z,21.00
2023-04-27T03:02:28.146Z,20.80
2023-04-27T03:04:58.004Z,23.08
2023-04-27T03:07:27.509Z,21.42
2023-04-27T03:09:56.504Z,23.05
2023-04-27T03:12:27.565Z,20.13
2023-04-27T03:15:01.718Z,23.42
2023-04-27T03:17:31.617Z,23.92
2023-04-27T03:20:01.190Z,19.60
2023-04-27T03:22:33.288Z,21.90
2023-04-27T03:25:02.201Z,23.00
2023-04-27T03:27:32.044Z,19.48
2023-04-27T03:30:03.980Z,20.85
2023-04-27T03:32:39.877Z,20.80
2023-04-27T03:35:13.269Z,21.80
2023-04-27T03:37:46.485Z,21.83
2023-04-27T03:40:18.504Z,21.55
2023-04-27T03:42:50.592Z,20.98
2023-04-27T03:45:23.052Z,19.15
2023-04-27T03:47:54.596Z,21.65
2023-04-27T03:50:23.672Z,20.67
2023-04-27T03:52:52.765Z,24.45
2023-04-27T03:55:26.550Z,19.92
2023-04-27T03:58:00.632Z,23.52
2023-04-27T04:00:36.382Z,18.80
2023-04-27T04:03:09.963Z,22.58
2023-04-27T04:05:40.436Z,18.98
2023-04-27T04:08:13.777Z,18.02
2023-04-27T04:10:42.839Z,20.80
2023-04-27T04:13:13.159Z,18.60
2023-04-27T04:15:47.216Z,21.90
2023-04-27T04:18:16.332Z,16.92
2023-04-27T04:20:45.648Z,15.55
2023-04-27T04:23:14.963Z,14.60
2023-04-27T04:25:50.582Z,13.10
2023-04-27T04:28:23.130Z,12.75
2023-04-27T04:30:55.377Z,14.05
2023-04-27T04:33:35.300Z,15.23
2023-04-27T04:36:05.599Z,16.05
2023-04-27T04:38:42.490Z,15.60
2023-04-27T04:41:14.104Z,14.05
2023-04-27T04:43:45.538Z,17.92
2023-04-27T04:46:20.536Z,15.18
2023-04-27T04:48:54.570Z,15.20
2023-04-27T04:51:29.546Z,14.32
2023-04-27T04:54:01.957Z,15.93
2023-04-27T04:56:33.948Z,15.85
2023-04-27T04:59:04.994Z,15.93
2023-04-27T05:01:37.217Z,15.50
2023-04-27T05:04:09.018Z,16.00
2023-04-27T05:06:38.218Z,17.27
2023-04-27T05:09:07.341Z,17.83
2023-04-27T05:11:38.849Z,19.10
2023-04-27T05:14:10.368Z,15.93
2023-04-27T05:16:43.563Z,22.00
2023-04-27T05:19:19.108Z,24.27
2023-04-27T05:21:55.751Z,20.40
2023-04-27T05:24:27.463Z,16.33
2023-04-27T05:26:59.722Z,19.88
2023-04-27T05:29:34.277Z,18.65
2023-04-27T05:32:03.792Z,17.27
2023-04-27T05:34:38.084Z,19.60
2023-04-27T05:37:12.116Z,20.85
2023-04-27T05:39:42.146Z,19.50
2023-04-27T05:42:12.066Z,20.83
2023-04-27T05:44:41.307Z,18.70
2023-04-27T05:47:16.907Z,17.92
2023-04-27T05:49:52.375Z,15.13
2023-04-27T05:52:23.095Z,19.27
2023-04-27T05:54:55.285Z,18.23
2023-04-27T05:57:28.782Z,17.70
2023-04-27T06:00:01.240Z,15.40
2023-04-27T06:02:43.952Z,15.07
2023-04-27T06:05:17.121Z,13.27
2023-04-27T06:07:52.378Z,12.60
2023-04-27T06:10:22.182Z,12.93
2023-04-27T06:12:58.600Z,13.07
2023-04-27T06:15:28.015Z,13.00
2023-04-27T06:18:00.528Z,11.20
2023-04-27T06:20:33.119Z,10.43
2023-04-27T06:23:08.661Z,12.57
2023-04-27T06:25:42.460Z,12.75
2023-04-27T06:28:17.536Z,10.90
2023-04-27T06:30:50.054Z,11.43
2023-04-27T06:33:27.176Z,12.38
2023-04-27T06:36:02.461Z,10.05
2023-04-27T06:38:35.502Z,11.60
2023-04-27T06:41:08.252Z,11.70
2023-04-27T06:43:43.432Z,9.60
2023-04-27T06:46:21.249Z,9.95
2023-04-27T06:51:27.257Z,12.77
2023-04-27T06:53:59.496Z,12.48
2023-04-27T06:56:31.223Z,11.77
2023-04-27T06:59:00.438Z,13.10
2023-04-27T07:01:31.940Z,14.32
2023-04-27T07:04:08.902Z,12.40
2023-04-27T07:06:43.596Z,12.88
2023-04-27T07:09:26.479Z,14.45
2023-04-27T07:11:59.498Z,15.95
2023-04-27T07:14:31.245Z,15.65
2023-04-27T07:17:00.507Z,17.13
2023-04-27T07:19:29.594Z,17.95
2023-04-27T07:22:05.561Z,14.85
2023-04-27T07:24:36.527Z,14.70
2023-04-27T07:27:08.684Z,15.48
2023-04-27T07:29:45.422Z,11.52
2023-04-27T07:32:19.126Z,14.13
2023-04-27T07:34:54.451Z,17.20
2023-04-27T07:37:26.004Z,14.90
2023-04-27T07:39:55.125Z,14.13
2023-04-27T07:42:26.751Z,13.40
2023-04-27T07:44:57.976Z,14.05
2023-04-27T07:47:31.339Z,12.90
2023-04-27T07:50:04.893Z,14.50
2023-04-27T07:52:34.914Z,12.00
2023-04-27T07:55:05.067Z,11.45
2023-04-27T07:57:38.980Z,33.65
2023-04-27T08:00:12.436Z,19.10
2023-04-27T08:02:46.649Z,14.32
2023-04-27T08:05:19.030Z,13.75
2023-04-27T08:07:56.433Z,12.70
2023-04-27T08:10:29.380Z,13.90
2023-04-27T08:12:58.717Z,14.70
2023-04-27T08:15:31.556Z,13.68
2023-04-27T08:18:00.967Z,13.75
2023-04-27T08:20:31.661Z,20.17
2023-04-27T08:23:01.084Z,13.68
2023-04-27T08:25:33.090Z,18.80
2023-04-27T08:28:03.241Z,15.60
2023-04-27T08:30:33.318Z,17.60
2023-04-27T08:33:03.367Z,14.95
2023-04-27T08:35:34.802Z,13.40
2023-04-27T08:38:04.717Z,16.02
2023-04-27T08:40:39.831Z,15.98
2023-04-27T08:43:15.092Z,14.20
2023-04-27T08:48:20.921Z,17.35
2023-04-27T08:50:52.393Z,15.63
2023-04-27T08:53:27.477Z,15.85
2023-04-27T08:56:00.181Z,15.07
2023-04-27T08:58:41.768Z,13.52
2023-04-27T09:01:13.844Z,14.05
2023-04-27T09:03:56.276Z,15.80
2023-04-27T09:06:39.563Z,12.85
2023-04-27T09:09:09.646Z,15.15
2023-04-27T09:11:41.658Z,15.38
2023-04-27T09:14:25.134Z,14.48
2023-04-27T09:16:59.880Z,14.13
2023-04-27T09:19:36.537Z,12.32
2023-04-27T09:22:11.696Z,14.50
2023-04-27T09:24:55.194Z,15.93
2023-04-27T09:27:27.606Z,12.98
2023-04-27T09:30:01.744Z,12.55
2023-04-27T09:32:33.917Z,29.00
2023-04-27T09:35:17.131Z,16.35
2023-04-27T09:37:46.836Z,14.02
2023-04-27T09:40:28.164Z,14.50
2023-04-27T09:43:03.186Z,11.90
2023-04-27T09:45:37.478Z,12.45
2023-04-27T09:48:08.356Z,12.85
2023-04-27T09:50:42.553Z,17.52
2023-04-27T09:53:15.406Z,14.05
2023-04-27T09:56:01.998Z,14.25
2023-04-27T09:58:56.578Z,14.20
2023-04-27T10:01:37.409Z,17.35
2023-04-27T10:04:41.610Z,17.20
2023-04-27T10:07:20.173Z,13.40
2023-04-27T10:09:56.664Z,17.55
2023-04-27T10:12:39.521Z,14.20
2023-04-27T10:15:18.341Z,16.88
2023-04-27T10:17:53.452Z,13.77
2023-04-27T10:20:35.616Z,15.30
2023-04-27T10:25:43.593Z,12.95
2023-04-27T10:28:21.895Z,15.88
2023-04-27T10:30:54.604Z,15.05
2023-04-27T10:33:26.441Z,12.07
2023-04-27T10:36:01.785Z,12.40
2023-04-27T10:38:33.134Z,13.43
2023-04-27T10:41:05.814Z,15.98
2023-04-27T10:43:38.309Z,14.95
2023-04-27T10:46:15.647Z,12.43
2023-04-27T10:48:48.989Z,16.75
2023-04-27T10:51:18.474Z,15.20
2023-04-27T10:53:53.997Z,13.93
2023-04-27T10:56:24.173Z,16.20
2023-04-27T10:58:54.081Z,16.75
2023-04-27T11:04:01.552Z,17.80
2023-04-27T11:06:34.020Z,16.42
2023-04-27T11:09:05.157Z,14.68
2023-04-27T11:11:44.778Z,16.08
2023-04-27T11:14:21.918Z,16.77
2023-04-27T11:19:23.531Z,18.23
2023-04-27T11:22:02.642Z,15.80
2023-04-27T11:24:51.914Z,18.15
2023-04-27T11:27:24.538Z,16.20
2023-04-27T11:29:54.129Z,18.40
2023-04-27T11:32:24.777Z,18.58
2023-04-27T11:34:59.617Z,15.75
2023-04-27T11:37:31.319Z,17.80
2023-04-27T11:40:05.310Z,12.55
2023-04-27T11:42:35.360Z,13.75
2023-04-27T11:45:08.407Z,12.77
2023-04-27T11:47:41.444Z,9.90
2023-04-27T11:50:13.537Z,9.00
2023-04-27T11:52:48.677Z,12.93
2023-04-27T11:55:23.456Z,11.20
2023-04-27T11:57:59.887Z,11.05
2023-04-27T12:00:29.507Z,9.68
2023-04-27T12:02:59.322Z,11.75
2023-04-27T12:05:29.552Z,10.77
2023-04-27T12:08:02.625Z,9.82
2023-04-27T12:10:35.476Z,15.52
2023-04-27T12:13:05.453Z,11.57
2023-04-27T12:15:35.219Z,11.30
2023-04-27T12:18:05.324Z,12.18
2023-04-27T12:20:40.724Z,10.00
2023-04-27T12:23:11.297Z,10.68
2023-04-27T12:25:44.633Z,11.20
2023-04-27T12:28:19.405Z,10.23
2023-04-27T12:30:51.525Z,12.82
2023-04-27T12:33:24.961Z,10.60
2023-04-27T12:35:54.846Z,11.52
2023-04-27T12:38:29.779Z,10.55
2023-04-27T12:41:03.162Z,9.52
2023-04-27T12:43:32.985Z,9.35
2023-04-27T12:46:04.131Z,10.63
2023-04-27T12:48:36.318Z,11.73
2023-04-27T12:51:08.676Z,10.88
2023-04-27T12:53:38.122Z,9.55
2023-04-27T12:56:07.468Z,11.45
2023-04-27T12:58:36.761Z,9.40
2023-04-27T13:01:12.747Z,9.93
2023-04-27T13:03:45.508Z,10.68
2023-04-27T13:06:17.148Z,10.80
2023-04-27T13:08:48.468Z,10.15
2023-04-27T13:11:35.891Z,9.07
2023-04-27T13:14:11.108Z,9.23
2023-04-27T13:16:47.950Z,11.32
2023-04-27T13:19:19.743Z,10.13
2023-04-27T13:21:50.772Z,8.73
2023-04-27T13:24:25.248Z,11.20
2023-04-27T13:26:58.961Z,10.75
2023-04-27T13:29:34.842Z,10.70
2023-04-27T13:32:07.084Z,9.07
2023-04-27T13:34:36.454Z,10.63
2023-04-27T13:37:08.009Z,7.38
2023-04-27T13:39:40.716Z,9.25
2023-04-27T13:42:13.131Z,10.20
2023-04-27T13:44:47.380Z,9.05
2023-04-27T13:47:17.514Z,9.50
2023-04-27T13:49:48.350Z,10.20
2023-04-27T13:52:22.860Z,10.85
2023-04-27T13:54:53.522Z,10.20
2023-04-27T13:57:25.208Z,10.27
2023-04-27T13:59:56.565Z,9.45
2023-04-27T14:02:26.255Z,8.77
2023-04-27T14:05:00.731Z,10.27
2023-04-27T14:07:31.520Z,9.52
2023-04-27T14:10:03.146Z,13.02
2023-04-27T14:12:36.264Z,11.65
2023-04-27T14:15:09.392Z,11.95
2023-04-27T14:17:38.830Z,11.15
2023-04-27T14:20:11.377Z,10.07
2023-04-27T14:22:47.364Z,11.48
2023-04-27T14:25:16.580Z,9.65
2023-04-27T14:27:47.959Z,11.10
2023-04-27T14:30:19.873Z,12.05
2023-04-27T14:32:55.226Z,10.65
2023-04-27T14:35:32.661Z,9.90
2023-04-27T14:38:04.998Z,12.35
2023-04-27T14:40:34.449Z,11.90
2023-04-27T14:43:08.957Z,12.98
2023-04-27T14:45:51.164Z,12.27
2023-04-27T14:48:27.545Z,13.20
2023-04-27T14:51:01.664Z,12.10
2023-04-27T14:53:30.736Z,13.32
2023-04-27T14:56:04.286Z,13.23
2023-04-27T14:58:41.759Z,11.40
2023-04-27T15:01:11.322Z,11.85
2023-04-27T15:03:43.644Z,13.20
2023-04-27T15:06:13.151Z,11.48
2023-04-27T15:08:46.223Z,10.40
2023-04-27T15:11:15.321Z,9.93
2023-04-27T15:13:49.268Z,9.85
2023-04-27T15:16:20.885Z,9.82
2023-04-27T15:18:50.306Z,9.88
2023-04-27T15:21:23.024Z,9.48
2023-04-27T15:23:58.196Z,10.00
2023-04-27T15:26:30.202Z,10.02
2023-04-27T15:29:00.062Z,8.60
2023-04-27T15:31:29.627Z,8.48
2023-04-27T15:34:01.580Z,8.73
2023-04-27T15:36:35.189Z,8.77
2023-04-27T15:39:12.419Z,8.52
2023-04-27T15:41:41.922Z,10.05
2023-04-27T15:44:14.630Z,9.57
2023-04-27T15:46:52.113Z,13.85
2023-04-27T15:49:26.608Z,8.73
2023-04-27T15:51:55.911Z,11.85
2023-04-27T15:54:28.562Z,10.73
2023-04-27T15:57:04.731Z,11.48
2023-04-27T15:59:33.903Z,8.98
2023-04-27T16:02:03.501Z,11.18
2023-04-27T16:04:33.559Z,11.05
2023-04-27T16:07:02.780Z,10.13
2023-04-27T16:09:32.319Z,9.93
2023-04-27T16:12:04.299Z,12.20
2023-04-27T16:14:35.172Z,10.77
2023-04-27T16:17:12.272Z,13.38
2023-04-27T16:19:53.150Z,13.63
2023-04-27T16:22:22.894Z,11.52
2023-04-27T16:24:52.507Z,10.23
2023-04-27T16:27:30.219Z,11.23
2023-04-27T16:30:00.194Z,10.93
2023-04-27T16:32:29.464Z,10.85
2023-04-27T16:35:01.703Z,9.98
2023-04-27T16:37:35.399Z,9.65
2023-04-27T16:40:08.225Z,9.77
2023-04-27T16:42:40.429Z,11.85
2023-04-27T16:45:11.052Z,9.20
2023-04-27T16:47:40.497Z,12.13
2023-04-27T16:50:13.359Z,9.85
2023-04-27T16:52:48.264Z,8.85
2023-04-27T16:55:29.179Z,10.27
2023-04-27T16:57:59.115Z,8.10
2023-04-27T17:00:32.546Z,14.07
2023-04-27T17:03:02.429Z,10.50
2023-04-27T17:05:33.053Z,10.02
2023-04-27T17:08:05.704Z,9.02
2023-04-27T17:13:08.297Z,9.43
2023-04-27T17:15:38.111Z,9.15
2023-04-27T17:18:10.009Z,11.73
2023-04-27T17:20:44.600Z,8.93
2023-04-27T17:23:15.148Z,11.05
2023-04-27T17:25:47.584Z,12.13
2023-04-27T17:28:19.613Z,8.82
2023-04-27T17:30:51.577Z,10.48
2023-04-27T17:33:24.808Z,9.70
2023-04-27T17:35:58.168Z,10.73
2023-04-27T17:38:31.323Z,19.85
2023-04-27T17:41:05.183Z,30.63
2023-04-27T17:43:38.232Z,24.83
2023-04-27T17:46:12.771Z,19.95
2023-04-27T17:48:44.693Z,14.45
2023-04-27T17:51:16.304Z,9.85
2023-04-27T17:53:50.528Z,9.02
2023-04-27T17:56:24.826Z,8.80
2023-04-27T17:58:59.486Z,10.32
2023-04-27T18:01:34.260Z,8.52
2023-04-27T18:04:07.618Z,8.65
2023-04-27T18:06:41.916Z,8.77
2023-04-27T18:09:13.197Z,9.43
2023-04-27T18:11:46.896Z,8.23
2023-04-27T18:14:19.031Z,8.90
2023-04-27T18:16:49.196Z,8.55
2023-04-27T18:19:19.694Z,8.85
2023-04-27T18:21:49.335Z,8.85
2023-04-27T18:24:19.835Z,8.50
2023-04-27T18:26:54.540Z,8.85
2023-04-27T18:29:30.355Z,9.38
2023-04-27T18:32:06.142Z,8.70
2023-04-27T18:34:40.341Z,8.73
2023-04-27T18:37:16.695Z,10.05
2023-04-27T18:39:48.964Z,9.35
2023-04-27T18:45:03.535Z,9.93
2023-04-27T18:47:34.894Z,8.80
2023-04-27T18:50:06.721Z,8.70
2023-04-27T18:52:40.557Z,10.70
2023-04-27T18:55:10.497Z,9.63
2023-04-27T18:57:42.627Z,10.27
2023-04-27T19:00:18.660Z,11.63
2023-04-27T19:02:52.508Z,11.52
2023-04-27T19:05:23.048Z,10.15
2023-04-27T19:07:56.219Z,12.25
2023-04-27T19:10:26.970Z,9.98
2023-04-27T19:13:00.576Z,9.43
2023-04-27T19:15:32.434Z,9.20
2023-04-27T19:18:10.614Z,9.75
2023-04-27T19:20:41.226Z,9.32
2023-04-27T19:23:19.638Z,10.85
2023-04-27T19:25:55.133Z,10.13
2023-04-27T19:28:31.700Z,9.50
2023-04-27T19:31:01.778Z,10.60
2023-04-27T19:33:35.161Z,9.90
2023-04-27T19:36:07.416Z,9.80
2023-04-27T19:38:37.904Z,8.57
2023-04-27T19:41:08.279Z,11.70
2023-04-27T19:43:43.797Z,12.20
2023-04-27T19:46:20.007Z,10.20
2023-04-27T19:48:49.585Z,11.10
2023-04-27T19:51:19.017Z,13.00
2023-04-27T19:53:53.398Z,9.38
2023-04-27T19:56:26.152Z,10.15
2023-04-27T19:58:57.767Z,11.77
2023-04-27T20:01:30.119Z,10.75
2023-04-27T20:04:05.321Z,10.77
2023-04-27T20:06:34.879Z,12.30
2023-04-27T20:09:06.323Z,9.57
2023-04-27T20:11:37.600Z,11.63
2023-04-27T20:14:08.595Z,10.10
2023-04-27T20:16:40.528Z,11.07
2023-04-27T20:19:13.091Z,12.02
2023-04-27T20:21:42.468Z,11.82
2023-04-27T20:24:15.835Z,12.70
2023-04-27T20:26:45.249Z,11.98
2023-04-27T20:29:17.958Z,11.65
2023-04-27T20:31:49.098Z,15.80
2023-04-27T20:34:19.613Z,10.95
2023-04-27T20:36:53.429Z,13.50
2023-04-27T20:39:27.321Z,10.95
2023-04-27T20:42:02.089Z,12.57
2023-04-27T20:44:32.797Z,11.43
2023-04-27T20:47:04.784Z,10.63
2023-04-27T20:49:36.883Z,10.90
2023-04-27T20:52:11.201Z,11.48
2023-04-27T20:54:40.477Z,10.30
2023-04-27T20:57:15.136Z,10.02
2023-04-27T20:59:46.588Z,10.25
2023-04-27T21:02:18.989Z,13.30
2023-04-27T21:04:53.587Z,11.90
2023-04-27T21:07:27.371Z,11.70
2023-04-27T21:09:56.652Z,13.30
2023-04-27T21:12:25.859Z,9.82
2023-04-27T21:15:01.474Z,12.88
2023-04-27T21:17:33.033Z,11.43
2023-04-27T21:20:08.119Z,9.40
2023-04-27T21:22:41.406Z,11.30
2023-04-27T21:25:16.796Z,12.20
2023-04-27T21:27:47.421Z,10.25
2023-04-27T21:30:19.992Z,10.75
2023-04-27T21:32:49.151Z,10.90
2023-04-27T21:35:22.527Z,11.05
2023-04-27T21:37:59.170Z,10.23
2023-04-27T21:40:29.630Z,10.10
2023-04-27T21:43:03.162Z,15.38
2023-04-27T21:45:38.607Z,13.60
2023-04-27T21:48:09.699Z,11.07
2023-04-27T21:50:41.684Z,10.75
2023-04-27T21:53:13.432Z,10.18
2023-04-27T21:55:46.271Z,13.60
2023-04-27T21:58:22.034Z,12.95
2023-04-27T22:00:52.498Z,9.73
2023-04-27T22:03:29.176Z,10.43
2023-04-27T22:06:08.098Z,11.50
2023-04-27T22:08:44.182Z,11.85
2023-04-27T22:11:15.933Z,12.63
2023-04-27T22:13:49.140Z,14.32
2023-04-27T22:16:22.528Z,10.13
2023-04-27T22:18:54.443Z,13.32
2023-04-27T22:21:29.432Z,12.07
2023-04-27T22:24:01.665Z,13.55
2023-04-27T22:29:07.218Z,9.15
2023-04-27T22:34:14.731Z,13.45
2023-04-27T22:36:44.319Z,8.20
2023-04-27T22:39:16.962Z,10.77
2023-04-27T22:41:53.112Z,9.57
2023-04-27T22:44:33.523Z,9.57
2023-04-27T22:47:07.289Z,12.02
2023-04-27T22:49:37.774Z,12.90
2023-04-27T22:52:09.894Z,12.18
2023-04-27T22:54:44.729Z,10.48
2023-04-27T22:57:20.728Z,10.88
2023-04-27T22:59:52.004Z,10.20
2023-04-27T23:02:24.630Z,17.23
2023-04-27T23:04:53.520Z,12.07
2023-04-27T23:07:31.135Z,12.13
2023-04-27T23:10:03.613Z,14.38
2023-04-27T23:12:37.057Z,10.52
2023-04-27T23:15:11.740Z,10.55
2023-04-27T23:17:44.064Z,11.55
2023-04-27T23:20:27.396Z,12.95
2023-04-27T23:23:02.142Z,11.02
2023-04-27T23:25:34.496Z,10.25
2023-04-27T23:28:09.541Z,10.48
2023-04-27T23:30:41.154Z,11.80
2023-04-27T23:33:14.421Z,10.52
2023-04-27T23:35:46.487Z,11.70
2023-04-27T23:38:21.866Z,12.52
2023-04-27T23:40:54.717Z,11.77
2023-04-27T23:43:27.871Z,13.18
2023-04-27T23:46:03.074Z,17.13
2023-04-27T23:48:32.371Z,11.02
2023-04-27T23:51:06.123Z,10.10
2023-04-27T23:53:38.848Z,10.20
2023-04-27T23:58:55.913Z,12.93
